createdAt,value
2018-12-29T00:02:00.623Z,18.57
2018-12-29T00:04:30.136Z,17.23
2018-12-29T00:06:59.607Z,18.00
2018-12-29T00:09:28.991Z,17.47
2018-12-29T00:11:58.459Z,17.73
2018-12-29T00:14:27.907Z,17.27
2018-12-29T00:16:57.572Z,17.30
2018-12-29T00:19:27.017Z,16.77
2018-12-29T00:21:56.742Z,18.57
2018-12-29T00:24:26.169Z,17.47
2018-12-29T00:26:55.684Z,18.87
2018-12-29T00:29:25.107Z,17.63
2018-12-29T00:31:54.582Z,18.73
2018-12-29T00:34:24.164Z,18.13
2018-12-29T00:36:53.617Z,17.03
2018-12-29T00:39:23.020Z,18.33
2018-12-29T00:41:52.430Z,17.90
2018-12-29T00:44:21.860Z,17.97
2018-12-29T00:46:51.330Z,18.73
2018-12-29T00:49:20.779Z,17.40
2018-12-29T00:51:50.248Z,18.57
2018-12-29T00:54:19.651Z,17.80
2018-12-29T00:56:49.142Z,17.60
2018-12-29T00:59:18.587Z,17.57
2018-12-29T01:01:48.017Z,17.23
2018-12-29T01:04:17.496Z,17.63
2018-12-29T01:06:46.886Z,17.90
2018-12-29T01:09:16.291Z,16.93
2018-12-29T01:11:45.752Z,17.60
2018-12-29T01:14:15.148Z,16.77
2018-12-29T01:16:44.607Z,17.20
2018-12-29T01:19:14.327Z,15.67
2018-12-29T01:21:43.789Z,16.50
2018-12-29T01:24:13.283Z,16.00
2018-12-29T01:26:42.755Z,16.27
2018-12-29T01:29:12.185Z,15.87
2018-12-29T01:31:41.633Z,16.73
2018-12-29T01:34:11.050Z,16.80
2018-12-29T01:36:40.763Z,16.17
2018-12-29T01:39:10.121Z,15.97
2018-12-29T01:41:39.613Z,16.50
2018-12-29T01:44:09.004Z,15.23
2018-12-29T01:46:38.417Z,15.83
2018-12-29T01:49:07.897Z,16.27
2018-12-29T01:51:37.345Z,16.70
2018-12-29T01:54:06.840Z,15.83
2018-12-29T01:56:36.292Z,16.03
2018-12-29T01:59:06.010Z,17.07
2018-12-29T02:01:35.493Z,15.87
2018-12-29T02:04:04.971Z,17.30
2018-12-29T02:06:34.421Z,15.63
2018-12-29T02:09:04.389Z,17.53
2018-12-29T02:11:33.833Z,17.17
2018-12-29T02:14:03.294Z,17.50
2018-12-29T02:16:32.708Z,16.67
2018-12-29T02:19:02.176Z,16.80
2018-12-29T02:21:31.560Z,16.83
2018-12-29T02:24:01.019Z,16.73
2018-12-29T02:26:30.517Z,15.47
2018-12-29T02:28:59.976Z,16.40
2018-12-29T02:31:29.373Z,17.47
2018-12-29T02:33:58.853Z,16.20
2018-12-29T02:36:28.548Z,15.97
2018-12-29T02:38:57.944Z,16.63
2018-12-29T02:41:27.342Z,16.23
2018-12-29T02:43:56.769Z,16.87
2018-12-29T02:46:29.775Z,16.33
2018-12-29T02:48:59.203Z,16.47
2018-12-29T02:51:28.684Z,16.23
2018-12-29T02:53:58.422Z,15.70
2018-12-29T02:56:28.246Z,16.33
2018-12-29T02:58:57.696Z,16.27
2018-12-29T03:01:28.471Z,16.50
2018-12-29T03:03:57.921Z,17.07
2018-12-29T03:06:27.353Z,16.37
2018-12-29T03:08:57.146Z,16.33
2018-12-29T03:11:26.574Z,18.47
2018-12-29T03:13:56.047Z,15.67
2018-12-29T03:16:25.685Z,17.03
2018-12-29T03:18:55.161Z,16.43
2018-12-29T03:21:24.755Z,16.70
2018-12-29T03:23:54.289Z,16.80
2018-12-29T03:26:23.794Z,17.33
2018-12-29T03:28:53.261Z,15.93
2018-12-29T03:31:23.055Z,16.77
2018-12-29T03:33:52.526Z,15.77
2018-12-29T03:36:21.962Z,16.57
2018-12-29T03:38:51.662Z,16.37
2018-12-29T03:41:21.181Z,16.63
2018-12-29T03:43:50.587Z,16.97
2018-12-29T03:46:20.092Z,16.27
2018-12-29T03:48:49.660Z,17.10
2018-12-29T03:51:19.163Z,16.90
2018-12-29T03:53:48.672Z,16.07
2018-12-29T03:56:18.158Z,17.17
2018-12-29T03:58:47.666Z,14.93
2018-12-29T04:01:17.128Z,16.23
2018-12-29T04:03:46.734Z,16.13
2018-12-29T04:06:16.169Z,16.07
2018-12-29T04:09:21.945Z,15.30
2018-12-29T04:11:51.413Z,16.30
2018-12-29T04:14:20.815Z,15.93
2018-12-29T04:16:50.235Z,16.53
2018-12-29T04:19:19.749Z,16.87
2018-12-29T04:21:49.265Z,16.40
2018-12-29T04:24:18.756Z,16.43
2018-12-29T04:26:48.186Z,16.33
2018-12-29T04:29:17.775Z,15.87
2018-12-29T04:31:47.952Z,15.27
2018-12-29T04:34:17.329Z,15.27
2018-12-29T04:36:46.748Z,16.17
2018-12-29T04:39:16.142Z,16.10
2018-12-29T04:41:45.611Z,15.90
2018-12-29T04:44:15.067Z,15.77
2018-12-29T04:46:44.500Z,16.20
2018-12-29T04:49:13.935Z,16.67
2018-12-29T04:51:43.407Z,16.57
2018-12-29T04:54:12.845Z,14.90
2018-12-29T04:56:42.728Z,15.47
2018-12-29T04:59:12.179Z,15.60
2018-12-29T05:01:41.607Z,15.37
2018-12-29T05:04:11.058Z,15.57
2018-12-29T05:06:40.515Z,16.20
2018-12-29T05:09:09.955Z,15.40
2018-12-29T05:11:39.293Z,16.07
2018-12-29T05:14:08.661Z,17.03
2018-12-29T05:16:38.041Z,15.83
2018-12-29T05:19:07.688Z,17.00
2018-12-29T05:21:37.404Z,15.97
2018-12-29T05:24:07.496Z,16.17
2018-12-29T05:26:36.951Z,15.47
2018-12-29T05:29:06.412Z,16.00
2018-12-29T05:31:35.887Z,17.23
2018-12-29T05:34:05.576Z,17.30
2018-12-29T05:36:34.939Z,17.33
2018-12-29T05:39:05.827Z,16.30
2018-12-29T05:41:35.175Z,16.37
2018-12-29T05:44:04.660Z,16.10
2018-12-29T05:46:34.116Z,16.13
2018-12-29T05:49:03.547Z,15.00
2018-12-29T05:51:33.176Z,17.07
2018-12-29T05:54:02.587Z,16.87
2018-12-29T05:56:31.952Z,17.17
2018-12-29T05:59:01.433Z,17.83
2018-12-29T06:01:30.940Z,17.60
2018-12-29T06:04:00.668Z,19.70
2018-12-29T06:06:30.134Z,18.55
2018-12-29T06:08:59.613Z,18.13
2018-12-29T06:11:28.988Z,17.20
2018-12-29T06:13:58.688Z,18.60
2018-12-29T06:16:28.236Z,18.53
2018-12-29T06:18:57.663Z,17.70
2018-12-29T06:21:27.064Z,23.55
2018-12-29T06:23:56.499Z,19.63
2018-12-29T06:26:26.137Z,17.73
2018-12-29T06:28:55.575Z,18.20
2018-12-29T06:31:25.147Z,19.10
2018-12-29T06:33:54.524Z,17.00
2018-12-29T06:36:23.971Z,16.53
2018-12-29T06:38:53.437Z,18.33
2018-12-29T06:41:23.038Z,18.17
2018-12-29T06:43:52.500Z,18.80
2018-12-29T06:46:22.144Z,18.63
2018-12-29T06:48:51.775Z,18.77
2018-12-29T06:51:21.142Z,17.07
2018-12-29T06:53:50.595Z,18.80
2018-12-29T06:56:20.655Z,17.93
2018-12-29T06:58:50.156Z,18.57
2018-12-29T07:01:19.710Z,17.40
2018-12-29T07:03:49.232Z,18.73
2018-12-29T07:06:18.691Z,18.67
2018-12-29T07:08:48.487Z,18.07
2018-12-29T07:11:18.095Z,18.30
2018-12-29T07:13:48.169Z,17.57
2018-12-29T07:16:17.887Z,16.87
2018-12-29T07:18:47.307Z,17.33
2018-12-29T07:21:16.875Z,17.67
2018-12-29T07:23:46.357Z,17.33
2018-12-29T07:26:16.087Z,18.67
2018-12-29T07:28:45.653Z,19.47
2018-12-29T07:31:15.098Z,18.53
2018-12-29T07:33:44.577Z,18.63
2018-12-29T07:36:14.051Z,17.00
2018-12-29T07:38:43.834Z,18.67
2018-12-29T07:41:13.270Z,17.17
2018-12-29T07:43:42.725Z,16.80
2018-12-29T07:46:12.158Z,17.43
2018-12-29T07:48:41.580Z,17.43
2018-12-29T07:51:11.317Z,17.57
2018-12-29T07:53:40.775Z,18.03
2018-12-29T07:56:10.143Z,21.23
2018-12-29T07:58:39.885Z,18.73
2018-12-29T08:01:09.338Z,18.23
2018-12-29T08:03:39.136Z,18.33
2018-12-29T08:06:08.524Z,18.20
2018-12-29T08:08:38.122Z,18.20
2018-12-29T08:11:07.785Z,18.40
2018-12-29T08:13:37.412Z,22.13
2018-12-29T08:16:07.038Z,19.37
2018-12-29T08:18:36.863Z,19.57
2018-12-29T08:21:06.573Z,18.60
2018-12-29T08:23:36.076Z,19.03
2018-12-29T08:26:05.450Z,18.73
2018-12-29T08:28:34.957Z,17.97
2018-12-29T08:31:04.360Z,19.07
2018-12-29T08:33:33.808Z,19.70
2018-12-29T08:36:03.304Z,19.53
2018-12-29T08:38:32.752Z,19.37
2018-12-29T08:41:02.245Z,19.23
2018-12-29T08:43:31.717Z,19.13
2018-12-29T08:46:01.168Z,19.53
2018-12-29T08:48:30.648Z,19.70
2018-12-29T08:51:00.031Z,20.00
2018-12-29T08:53:29.515Z,19.63
2018-12-29T08:55:59.008Z,20.23
2018-12-29T08:58:28.480Z,19.97
2018-12-29T09:00:58.034Z,19.77
2018-12-29T09:03:27.455Z,18.17
2018-12-29T09:05:56.871Z,19.97
2018-12-29T09:08:26.907Z,19.83
2018-12-29T09:10:56.716Z,20.30
2018-12-29T09:13:26.163Z,21.23
2018-12-29T09:15:55.587Z,20.03
2018-12-29T09:18:25.073Z,21.17
2018-12-29T09:20:54.532Z,20.03
2018-12-29T09:23:24.007Z,21.10
2018-12-29T09:25:53.490Z,21.83
2018-12-29T09:28:22.919Z,19.63
2018-12-29T09:30:52.667Z,20.13
2018-12-29T09:33:22.146Z,20.50
2018-12-29T09:35:51.615Z,20.13
2018-12-29T09:38:21.079Z,19.43
2018-12-29T09:40:50.535Z,20.43
2018-12-29T09:43:20.303Z,18.77
2018-12-29T09:45:49.751Z,18.87
2018-12-29T09:48:19.205Z,20.03
2018-12-29T09:50:48.694Z,19.20
2018-12-29T09:53:18.151Z,19.70
2018-12-29T09:55:47.624Z,18.57
2018-12-29T09:58:17.076Z,19.37
2018-12-29T10:00:46.520Z,18.63
2018-12-29T10:03:16.270Z,19.13
2018-12-29T10:05:45.727Z,20.53
2018-12-29T10:08:15.200Z,19.20
2018-12-29T10:10:44.632Z,19.50
2018-12-29T10:13:14.153Z,20.50
2018-12-29T10:15:43.929Z,20.00
2018-12-29T10:18:13.369Z,19.10
2018-12-29T10:20:42.850Z,20.17
2018-12-29T10:23:12.312Z,19.83
2018-12-29T10:25:41.810Z,19.17
2018-12-29T10:28:12.778Z,20.70
2018-12-29T10:30:42.256Z,20.33
2018-12-29T10:33:11.681Z,20.20
2018-12-29T10:35:41.120Z,19.53
2018-12-29T10:38:10.502Z,20.70
2018-12-29T10:40:39.987Z,20.17
2018-12-29T10:43:09.595Z,19.97
2018-12-29T10:45:39.459Z,19.67
2018-12-29T10:48:08.966Z,18.63
2018-12-29T10:50:38.527Z,18.73
2018-12-29T10:53:08.031Z,20.43
2018-12-29T10:55:38.507Z,20.43
2018-12-29T10:58:08.002Z,20.37
2018-12-29T11:00:37.585Z,20.87
2018-12-29T11:03:07.348Z,20.70
2018-12-29T11:05:36.887Z,24.25
2018-12-29T11:08:06.376Z,22.53
2018-12-29T11:10:36.256Z,19.53
2018-12-29T11:13:05.708Z,22.00
2018-12-29T11:15:35.257Z,18.73
2018-12-29T11:18:04.897Z,24.72
2018-12-29T11:20:34.463Z,20.67
2018-12-29T11:23:05.520Z,20.27
2018-12-29T11:25:35.118Z,20.70
2018-12-29T11:28:04.684Z,20.53
2018-12-29T11:30:35.287Z,21.60
2018-12-29T11:33:04.999Z,21.17
2018-12-29T11:35:34.807Z,19.10
2018-12-29T11:38:04.467Z,19.13
2018-12-29T11:40:34.017Z,18.13
2018-12-29T11:43:03.672Z,19.07
2018-12-29T11:45:33.440Z,19.30
2018-12-29T11:48:03.110Z,22.75
2018-12-29T11:50:32.995Z,19.00
2018-12-29T11:53:02.530Z,20.03
2018-12-29T11:55:32.020Z,24.10
2018-12-29T11:58:02.306Z,21.53
2018-12-29T12:00:31.939Z,20.60
2018-12-29T12:03:01.524Z,20.13
2018-12-29T12:05:31.028Z,23.57
2018-12-29T12:08:00.905Z,20.70
2018-12-29T12:10:30.756Z,20.50
2018-12-29T12:13:00.348Z,19.30
2018-12-29T12:15:29.967Z,21.27
2018-12-29T12:17:59.473Z,19.30
2018-12-29T12:20:29.568Z,19.67
2018-12-29T12:22:59.078Z,19.20
2018-12-29T12:25:29.475Z,19.17
2018-12-29T12:27:59.297Z,20.27
2018-12-29T12:30:28.817Z,19.87
2018-12-29T12:32:58.943Z,20.50
2018-12-29T12:35:28.983Z,19.93
2018-12-29T12:37:58.923Z,18.90
2018-12-29T12:40:28.834Z,20.77
2018-12-29T12:42:58.546Z,19.90
2018-12-29T12:45:28.516Z,20.67
2018-12-29T12:48:04.893Z,20.57
2018-12-29T12:50:29.420Z,19.87
2018-12-29T12:52:59.139Z,18.90
2018-12-29T12:55:29.722Z,19.10
2018-12-29T12:58:00.056Z,19.93
2018-12-29T13:00:30.368Z,17.93
2018-12-29T13:03:01.045Z,19.23
2018-12-29T13:05:31.876Z,18.83
2018-12-29T13:08:01.370Z,18.20
2018-12-29T13:10:30.976Z,17.80
2018-12-29T13:13:00.563Z,19.70
2018-12-29T13:15:30.060Z,17.70
2018-12-29T13:17:59.994Z,17.43
2018-12-29T13:20:30.289Z,16.40
2018-12-29T13:22:59.815Z,17.17
2018-12-29T13:25:29.793Z,17.70
2018-12-29T13:27:59.631Z,17.73
2018-12-29T13:30:29.749Z,18.73
2018-12-29T13:32:59.413Z,17.80
2018-12-29T13:35:29.567Z,17.33
2018-12-29T13:37:59.815Z,17.10
2018-12-29T13:40:30.345Z,18.00
2018-12-29T13:43:00.918Z,18.07
2018-12-29T13:45:30.627Z,18.17
2018-12-29T13:48:00.163Z,17.27
2018-12-29T13:50:30.633Z,16.90
2018-12-29T13:53:01.051Z,18.40
2018-12-29T13:55:32.773Z,17.90
2018-12-29T13:58:02.998Z,18.67
2018-12-29T14:00:33.130Z,17.70
2018-12-29T14:03:02.806Z,17.33
2018-12-29T14:05:32.931Z,17.97
2018-12-29T14:08:03.401Z,17.57
2018-12-29T14:10:33.175Z,16.77
2018-12-29T14:13:03.023Z,16.27
2018-12-29T14:15:34.043Z,18.37
2018-12-29T14:18:03.741Z,17.90
2018-12-29T14:20:33.924Z,16.90
2018-12-29T14:23:04.856Z,18.17
2018-12-29T14:25:35.528Z,17.70
2018-12-29T14:28:06.570Z,17.20
2018-12-29T14:30:36.609Z,16.90
2018-12-29T14:33:06.233Z,17.87
2018-12-29T14:35:35.936Z,16.93
2018-12-29T14:38:05.802Z,17.10
2018-12-29T14:40:36.041Z,16.83
2018-12-29T14:43:06.724Z,17.77
2018-12-29T14:45:37.148Z,17.73
2018-12-29T14:48:07.782Z,18.27
2018-12-29T14:50:37.659Z,17.70
2018-12-29T14:53:07.211Z,17.10
2018-12-29T14:55:37.048Z,17.57
2018-12-29T14:58:09.544Z,20.13
2018-12-29T15:00:39.030Z,16.47
2018-12-29T15:03:08.820Z,18.23
2018-12-29T15:05:38.333Z,17.77
2018-12-29T15:08:07.915Z,18.23
2018-12-29T15:10:38.221Z,17.50
2018-12-29T15:13:08.556Z,17.60
2018-12-29T15:15:38.061Z,16.77
2018-12-29T15:18:10.606Z,20.02
2018-12-29T15:20:40.495Z,17.00
2018-12-29T15:23:10.701Z,17.30
2018-12-29T15:25:40.692Z,18.43
2018-12-29T15:28:10.283Z,16.90
2018-12-29T15:30:40.159Z,16.90
2018-12-29T15:33:09.691Z,17.90
2018-12-29T15:35:39.280Z,18.50
2018-12-29T15:38:09.317Z,18.00
2018-12-29T15:40:38.812Z,16.97
2018-12-29T15:43:08.428Z,18.60
2018-12-29T15:45:38.359Z,18.07
2018-12-29T15:48:10.766Z,18.80
2018-12-29T15:50:40.258Z,17.47
2018-12-29T15:53:10.060Z,16.37
2018-12-29T15:55:39.604Z,16.50
2018-12-29T15:58:09.351Z,16.87
2018-12-29T16:00:38.823Z,16.73
2018-12-29T16:03:08.304Z,16.83
2018-12-29T16:05:37.904Z,16.67
2018-12-29T16:08:08.400Z,17.07
2018-12-29T16:10:37.952Z,17.50
2018-12-29T16:13:07.910Z,17.70
2018-12-29T16:15:37.575Z,16.83
2018-12-29T16:18:07.164Z,16.60
2018-12-29T16:20:36.733Z,17.77
2018-12-29T16:23:06.507Z,17.23
2018-12-29T16:25:36.131Z,17.57
2018-12-29T16:28:05.656Z,17.33
2018-12-29T16:30:35.360Z,16.67
2018-12-29T16:33:04.815Z,15.73
2018-12-29T16:35:34.836Z,16.13
2018-12-29T16:38:06.068Z,17.03
2018-12-29T16:40:35.693Z,15.33
2018-12-29T16:43:07.333Z,15.73
2018-12-29T16:45:37.513Z,17.10
2018-12-29T16:48:07.729Z,16.77
2018-12-29T16:50:37.263Z,18.60
2018-12-29T16:53:07.105Z,16.30
2018-12-29T16:55:36.993Z,18.00
2018-12-29T16:58:06.888Z,17.90
2018-12-29T17:00:36.416Z,17.40
2018-12-29T17:03:06.101Z,17.60
2018-12-29T17:05:35.631Z,17.20
2018-12-29T17:08:06.802Z,17.13
2018-12-29T17:10:36.598Z,15.70
2018-12-29T17:13:06.150Z,16.67
2018-12-29T17:15:36.933Z,17.33
2018-12-29T17:18:06.692Z,18.97
2018-12-29T17:20:37.929Z,17.10
2018-12-29T17:23:16.796Z,17.80
2018-12-29T17:25:46.569Z,17.20
2018-12-29T17:28:16.045Z,16.80
2018-12-29T17:30:45.758Z,17.70
2018-12-29T17:33:18.542Z,17.33
2018-12-29T17:35:48.923Z,17.45
2018-12-29T17:38:18.912Z,16.40
2018-12-29T17:40:55.729Z,17.13
2018-12-29T17:43:27.651Z,17.53
2018-12-29T17:46:02.956Z,17.07
2018-12-29T17:48:35.567Z,16.50
2018-12-29T17:51:10.225Z,17.13
2018-12-29T17:53:47.934Z,16.57
2018-12-29T17:56:19.687Z,17.47
2018-12-29T17:58:54.758Z,16.13
2018-12-29T18:01:26.969Z,16.57
2018-12-29T18:04:01.792Z,16.40
2018-12-29T18:06:31.592Z,16.83
2018-12-29T18:09:01.758Z,16.70
2018-12-29T18:11:31.476Z,16.43
2018-12-29T18:14:04.261Z,17.07
2018-12-29T18:16:33.964Z,16.57
2018-12-29T18:19:05.846Z,17.57
2018-12-29T18:21:36.322Z,16.60
2018-12-29T18:24:08.940Z,17.17
2018-12-29T18:26:38.526Z,16.90
2018-12-29T18:29:14.150Z,16.73
2018-12-29T18:31:45.741Z,17.03
2018-12-29T18:34:17.486Z,16.33
2018-12-29T18:36:49.690Z,16.60
2018-12-29T18:39:22.181Z,16.80
2018-12-29T18:41:52.007Z,20.23
2018-12-29T18:44:22.456Z,17.75
2018-12-29T18:46:52.455Z,16.80
2018-12-29T18:49:24.179Z,16.63
2018-12-29T18:51:54.923Z,15.83
2018-12-29T18:54:31.772Z,14.87
2018-12-29T18:57:17.563Z,16.17
2018-12-29T18:59:48.590Z,15.17
2018-12-29T19:02:18.344Z,16.50
2018-12-29T19:04:47.974Z,15.50
2018-12-29T19:07:23.275Z,17.03
2018-12-29T19:09:52.977Z,16.00
2018-12-29T19:12:31.187Z,15.43
2018-12-29T19:15:01.105Z,16.47
2018-12-29T19:21:00.636Z,15.60
2018-12-29T19:23:30.872Z,14.83
2018-12-29T19:26:00.883Z,16.90
2018-12-29T19:28:31.159Z,15.47
2018-12-29T19:31:01.018Z,16.10
2018-12-29T19:33:31.222Z,15.70
2018-12-29T19:36:01.154Z,16.23
2018-12-29T19:38:43.276Z,16.47
2018-12-29T19:41:23.664Z,15.30
2018-12-29T19:43:57.099Z,15.60
2018-12-29T19:50:03.240Z,15.10
2018-12-29T19:52:36.707Z,15.83
2018-12-29T19:55:26.555Z,14.87
2018-12-29T19:58:00.431Z,15.63
2018-12-29T20:00:34.811Z,15.23
2018-12-29T20:03:11.229Z,14.63
2018-12-29T20:05:46.993Z,14.27
2018-12-29T20:08:18.346Z,14.33
2018-12-29T20:10:48.504Z,14.13
2018-12-29T20:13:20.060Z,13.67
2018-12-29T20:15:49.885Z,13.67
2018-12-29T20:18:20.709Z,14.33
2018-12-29T20:20:50.452Z,14.43
2018-12-29T20:23:20.586Z,13.07
2018-12-29T20:25:50.130Z,13.60
2018-12-29T20:28:20.435Z,13.43
2018-12-29T20:30:49.984Z,14.03
2018-12-29T20:33:19.707Z,12.60
2018-12-29T20:35:54.317Z,12.50
2018-12-29T20:38:23.906Z,11.80
2018-12-29T20:40:54.315Z,11.83
2018-12-29T20:43:24.171Z,11.63
2018-12-29T20:45:53.980Z,11.77
2018-12-29T20:48:23.489Z,11.13
2018-12-29T20:50:54.598Z,11.00
2018-12-29T20:53:25.316Z,11.27
2018-12-29T20:55:56.147Z,10.90
2018-12-29T20:58:26.721Z,10.43
2018-12-29T21:01:02.236Z,10.57
2018-12-29T21:03:33.558Z,10.03
2018-12-29T21:06:08.141Z,10.23
2018-12-29T21:08:41.231Z,9.53
2018-12-29T21:11:13.681Z,9.17
2018-12-29T21:13:43.467Z,10.17
2018-12-29T21:16:12.887Z,9.90
2018-12-29T21:18:42.438Z,9.60
2018-12-29T21:21:11.919Z,9.27
2018-12-29T21:23:45.044Z,9.37
2018-12-29T21:26:14.931Z,8.97
2018-12-29T21:28:48.175Z,8.90
2018-12-29T21:31:22.903Z,8.13
2018-12-29T21:33:52.413Z,7.93
2018-12-29T21:36:23.228Z,7.30
2018-12-29T21:38:53.726Z,9.37
2018-12-29T21:41:30.306Z,7.17
2018-12-29T21:43:59.808Z,6.80
2018-12-29T21:46:29.491Z,7.57
2018-12-29T21:48:59.097Z,7.40
2018-12-29T21:51:29.028Z,6.53
2018-12-29T21:53:58.617Z,7.57
2018-12-29T21:56:28.876Z,6.77
2018-12-29T21:58:58.436Z,7.37
2018-12-29T22:01:35.360Z,7.73
2018-12-29T22:04:09.701Z,7.13
2018-12-29T22:06:42.492Z,6.97
2018-12-29T22:09:13.396Z,7.17
2018-12-29T22:11:45.622Z,6.57
2018-12-29T22:14:19.479Z,5.63
2018-12-29T22:16:54.158Z,6.37
2018-12-29T22:19:27.856Z,7.20
2018-12-29T22:22:00.937Z,6.50
2018-12-29T22:24:33.521Z,6.33
2018-12-29T22:27:07.075Z,6.33
2018-12-29T22:29:38.423Z,6.73
2018-12-29T22:32:40.897Z,6.70
2018-12-29T22:34:42.641Z,6.87
2018-12-29T22:37:13.119Z,6.57
2018-12-29T22:39:43.479Z,7.33
2018-12-29T22:42:15.692Z,6.10
2018-12-29T22:44:46.255Z,6.80
2018-12-29T22:47:19.795Z,7.77
2018-12-29T22:49:52.535Z,7.23
2018-12-29T22:52:23.821Z,7.93
2018-12-29T22:58:08.810Z,7.20
2018-12-29T23:00:41.415Z,7.37
2018-12-29T23:03:10.864Z,7.17
2018-12-29T23:05:40.343Z,7.20
2018-12-29T23:08:09.840Z,7.70
2018-12-29T23:10:39.307Z,7.73
2018-12-29T23:13:08.769Z,8.00
2018-12-29T23:15:38.263Z,7.97
2018-12-29T23:18:07.787Z,8.47
2018-12-29T23:20:37.541Z,7.50
2018-12-29T23:23:07.023Z,7.77
2018-12-29T23:25:36.491Z,7.67
2018-12-29T23:28:05.945Z,8.37
2018-12-29T23:30:35.460Z,8.47
2018-12-29T23:33:05.292Z,7.70
2018-12-29T23:35:34.788Z,8.40
2018-12-29T23:38:04.505Z,8.33
2018-12-29T23:40:33.985Z,7.90
2018-12-29T23:43:03.413Z,8.00
2018-12-29T23:45:33.328Z,8.67
2018-12-29T23:48:02.812Z,7.80
2018-12-29T23:50:32.307Z,8.10
2018-12-29T23:53:02.027Z,7.83
2018-12-29T23:55:31.977Z,7.47
2018-12-29T23:58:01.470Z,7.53
